Stations météo

réclame
Mon MeteoGroup
Toulon/Ile du Levant, France (7678): Température de l'air & dewpoint: 14.01.2018 00:00:00 - 20.01.2018 00:00:00 (CET)Toulon/Ile du Levant, France (7678): Vitesse du vent & gusts: 14.01.2018 00:00:00 - 20.01.2018 00:00:00 (CET)Toulon/Ile du Levant, France (7678): Direction du vent: 14.01.2018 00:00:00 - 20.01.2018 00:00:00 (CET)Toulon/Ile du Levant, France (7678): reduced air pressure: 14.01.2018 00:00:00 - 20.01.2018 00:00:00 (CET)Toulon/Ile du Levant, France (7678): Quantités de précipitations: 14.01.2018 00:00:00 - 20.01.2018 00:00:00 (CET)
Date & Time tt [°C] td [°C] ff [km/h] ff [knt] fx [km/h] fx [knt] dd ppp [hPa] rr [mm]
20.01.2018 00:00:00 - - - - - - - - -
19.01.2018 23:00:00 11,4 3,2 41 22 59 32 W 1015,7 0,0
19.01.2018 22:00:00 11,9 1,2 35 19 52 28 WNW 1015,6 -
19.01.2018 21:00:00 12,0 0,4 35 19 57 31 WNW 1015,5 0,0
19.01.2018 20:00:00 12,3 2,4 39 21 65 35 W 1014,6 0,0
19.01.2018 19:00:00 12,7 2,0 44 24 65 35 WNW 1014,1 -
19.01.2018 18:00:00 12,9 2,7 44 24 80 43 WNW 1012,9 0,0
19.01.2018 17:00:00 13,5 2,7 52 28 76 41 WNW 1011,9 0,0
19.01.2018 16:00:00 13,5 4,6 44 24 68 37 W 1011,7 -
19.01.2018 15:00:00 13,6 6,2 42 23 70 38 W 1011,1 0,0
19.01.2018 14:00:00 13,8 4,9 52 28 78 42 W 1011,1 0,0
19.01.2018 13:00:00 14,0 4,3 52 28 74 40 W 1011,7 -
19.01.2018 12:00:00 14,2 3,9 42 23 68 37 W 1012,5 0,0
19.01.2018 11:00:00 13,6 5,7 42 23 65 35 W 1012,5 0,0
19.01.2018 10:00:00 12,1 8,4 37 20 65 35 W 1012,3 -
19.01.2018 09:00:00 12,0 8,8 35 19 55 30 W 1011,8 0,0
19.01.2018 08:00:00 11,7 8,4 35 19 52 28 W 1012,1 0,0
19.01.2018 07:00:00 11,7 8,2 37 20 57 31 W 1012,4 -
19.01.2018 06:00:00 11,4 8,4 35 19 55 30 W 1012,5 0,0
19.01.2018 05:00:00 11,3 8,2 44 24 67 36 W 1012,7 0,0
19.01.2018 04:00:00 11,3 7,8 48 26 74 40 W 1013,2 -
19.01.2018 03:00:00 11,1 7,4 48 26 70 38 W 1013,7 0,0
19.01.2018 02:00:00 11,2 7,5 44 24 68 37 W 1013,8 0,0
19.01.2018 01:00:00 11,1 7,2 46 25 68 37 W 1014,2 -
19.01.2018 00:00:00 11,4 6,9 46 25 70 38 W 1014,6 0,0
18.01.2018 23:00:00 11,2 7,3 48 26 72 39 W 1014,6 0,0
18.01.2018 22:00:00 11,3 7,8 46 25 72 39 W 1015,3 -
18.01.2018 21:00:00 11,2 7,3 48 26 68 37 W 1015,7 0,0
18.01.2018 20:00:00 11,1 7,4 42 23 72 39 W 1016,4 0,0
18.01.2018 19:00:00 11,3 7,6 54 29 74 40 W 1016,6 -
18.01.2018 18:00:00 11,1 7,2 50 27 80 43 W 1016,8 0,0
18.01.2018 17:00:00 11,5 7,2 50 27 83 45 W 1016,7 0,0
18.01.2018 16:00:00 11,7 6,8 54 29 83 45 W 1016,7 -
18.01.2018 15:00:00 11,7 6,0 54 29 85 46 W 1016,9 0,0
18.01.2018 14:00:00 11,9 6,4 59 32 91 49 W 1017,1 0,0
18.01.2018 13:00:00 11,7 5,8 59 32 89 48 W 1018,1 -
18.01.2018 12:00:00 11,3 5,6 55 30 80 43 W 1018,8 0,0
18.01.2018 11:00:00 10,5 4,6 57 31 83 45 W 1019,9 0,0
18.01.2018 10:00:00 9,8 3,5 55 30 80 43 W 1019,7 -
18.01.2018 09:00:00 9,5 3,7 55 30 81 44 W 1019,5 0,0
18.01.2018 08:00:00 9,5 3,2 52 28 78 42 W 1019,6 0,0
18.01.2018 07:00:00 9,3 2,2 50 27 68 37 W 1019,1 -
18.01.2018 06:00:00 9,2 2,5 46 25 70 38 W 1018,8 0,0
18.01.2018 05:00:00 9,1 0,3 48 26 74 40 W 1019,4 0,0
18.01.2018 04:00:00 9,4 -0,5 59 32 83 45 WNW 1019,1 -
18.01.2018 03:00:00 9,7 -2,3 57 31 87 47 W 1020,4 0,0
18.01.2018 02:00:00 9,2 -2,1 59 32 83 45 WNW 1019,4 0,0
18.01.2018 01:00:00 9,3 -2,0 59 32 83 45 WNW 1019,5 -
18.01.2018 00:00:00 9,4 -2,6 59 32 85 46 WNW 1019,2 0,0
17.01.2018 23:00:00 9,6 -3,4 57 31 81 44 WNW 1019,8 0,0
17.01.2018 22:00:00 9,6 -4,4 48 26 83 45 WNW 1019,3 -
17.01.2018 21:00:00 9,8 -4,6 48 26 76 41 WNW 1019,0 0,0
17.01.2018 20:00:00 9,9 -3,1 50 27 74 40 WNW 1018,2 0,0
17.01.2018 19:00:00 10,2 -3,9 54 29 80 43 WNW 1017,5 -
17.01.2018 18:00:00 10,6 -3,2 54 29 96 52 WNW 1016,8 0,0
17.01.2018 17:00:00 11,1 -3,1 61 33 107 58 WNW 1015,2 0,0
17.01.2018 16:00:00 11,8 -3,6 65 35 117 63 WNW 1013,8 -
17.01.2018 15:00:00 11,9 -2,4 78 42 117 63 WNW 1013,7 0,0
17.01.2018 14:00:00 11,9 -1,3 74 40 128 69 WNW 1012,3 0,0
17.01.2018 13:00:00 11,8 -1,0 76 41 119 64 WNW 1011,7 -
17.01.2018 12:00:00 11,8 -1,4 80 43 124 67 WNW 1011,0 0,0
17.01.2018 11:00:00 11,6 0,7 74 40 119 64 WNW 1011,6 0,0
17.01.2018 10:00:00 11,6 0,9 76 41 111 60 W 1010,9 -
17.01.2018 09:00:00 11,8 3,0 76 41 113 61 WNW 1009,5 0,0
17.01.2018 08:00:00 12,1 4,6 68 37 104 56 W 1008,0 0,0
17.01.2018 07:00:00 12,6 5,3 65 35 94 51 W 1008,2 -
17.01.2018 06:00:00 12,8 8,1 61 33 89 48 W 1007,1 0,2
17.01.2018 05:00:00 12,3 10,4 57 31 106 57 W 1007,7 0,6
17.01.2018 04:00:00 12,8 10,5 72 39 107 58 W 1006,7 -
17.01.2018 03:00:00 13,4 10,4 72 39 107 58 W 1006,7 0,0
17.01.2018 02:00:00 13,5 10,3 72 39 107 58 W 1007,0 0,0
17.01.2018 01:00:00 13,4 10,4 68 37 106 57 W 1008,0 -
17.01.2018 00:00:00 13,5 10,3 76 41 111 60 W 1008,5 0,0
16.01.2018 23:00:00 13,7 10,3 74 40 107 58 W 1008,5 0,0
16.01.2018 22:00:00 13,6 10,4 74 40 113 61 W 1009,5 -
16.01.2018 21:00:00 13,5 10,5 70 38 102 55 W 1009,6 0,0
16.01.2018 20:00:00 13,5 10,5 67 36 96 52 W 1010,1 0,0
16.01.2018 19:00:00 13,7 10,3 68 37 96 52 W 1010,3 -
16.01.2018 18:00:00 13,6 10,0 59 32 94 51 W 1010,8 0,0
16.01.2018 17:00:00 13,8 10,2 59 32 93 50 W 1011,0 0,0
16.01.2018 16:00:00 14,4 10,2 61 33 93 50 W 1011,3 -
16.01.2018 15:00:00 14,2 10,0 59 32 93 50 W 1011,6 0,0
16.01.2018 14:00:00 14,5 10,1 67 36 96 52 W 1011,5 0,2
16.01.2018 13:00:00 14,5 10,3 52 28 74 40 W 1013,0 -
16.01.2018 12:00:00 13,5 10,7 44 24 80 43 WSW 1014,3 0,0
16.01.2018 11:00:00 13,5 10,5 57 31 81 44 W 1014,9 0,0
16.01.2018 10:00:00 12,1 10,2 46 25 68 37 W 1015,1 -
16.01.2018 09:00:00 12,4 10,1 44 24 63 34 W 1015,1 0,0
16.01.2018 08:00:00 11,0 9,6 39 21 70 38 W 1015,0 0,0
16.01.2018 07:00:00 11,3 9,0 46 25 80 43 W 1014,6 -
16.01.2018 06:00:00 12,2 8,1 46 25 68 37 W 1015,1 0,0
16.01.2018 05:00:00 11,6 8,1 41 22 59 32 W 1015,5 0,0
16.01.2018 04:00:00 11,4 7,9 39 21 63 34 WSW 1016,3 -
16.01.2018 03:00:00 11,4 8,3 42 23 65 35 WSW 1017,5 0,0
16.01.2018 02:00:00 11,2 7,5 39 21 54 29 WSW 1018,1 0,0
16.01.2018 01:00:00 11,2 7,5 34 18 61 33 W 1018,9 -
16.01.2018 00:00:00 11,0 6,9 37 20 63 34 W 1019,5 0,0
15.01.2018 23:00:00 11,3 8,7 34 18 50 27 W 1019,7 0,0
15.01.2018 22:00:00 10,8 7,5 26 14 37 20 WSW 1020,3 -
15.01.2018 21:00:00 10,3 7,2 18 10 26 14 WSW 1020,6 0,0
15.01.2018 20:00:00 9,4 6,8 15 8 18 10 WSW 1020,6 0,0
15.01.2018 19:00:00 9,5 6,6 11 6 13 7 WSW 1020,4 -
15.01.2018 18:00:00 10,1 6,4 8 4 11 6 SSW 1020,2 0,0
15.01.2018 17:00:00 11,0 6,7 8 4 9 5 ESE 1020,7 0,0
15.01.2018 16:00:00 11,9 6,6 8 4 18 10 E 1020,9 -
15.01.2018 15:00:00 13,4 7,4 15 8 24 13 E 1020,5 0,0
15.01.2018 14:00:00 12,9 7,6 15 8 29 16 E 1021,1 0,0
15.01.2018 13:00:00 12,0 7,3 16 9 29 16 E 1021,8 -
15.01.2018 12:00:00 11,6 6,9 21 11 31 17 E 1022,7 0,0
15.01.2018 11:00:00 11,1 6,8 26 14 41 22 E 1023,2 0,0
15.01.2018 10:00:00 10,7 6,8 28 15 37 20 E 1022,5 -
15.01.2018 09:00:00 10,5 6,6 24 13 39 21 E 1022,1 0,0
15.01.2018 08:00:00 10,5 6,4 28 15 39 21 E 1021,6 0,0
15.01.2018 07:00:00 10,3 5,3 26 14 46 25 E 1020,9 -
15.01.2018 06:00:00 10,4 5,4 34 18 46 25 E 1020,6 0,0
15.01.2018 05:00:00 10,5 5,7 35 19 46 25 E 1020,5 0,0
15.01.2018 04:00:00 10,5 5,7 34 18 46 25 E 1020,7 -
15.01.2018 03:00:00 10,7 5,2 31 17 48 26 E 1021,1 0,0
15.01.2018 02:00:00 10,6 4,9 34 18 50 27 E 1021,0 0,0
15.01.2018 01:00:00 10,7 5,2 35 19 50 27 E 1021,1 -
15.01.2018 00:00:00 10,7 5,2 35 19 52 28 E 1020,9 0,0
14.01.2018 23:00:00 10,8 5,3 41 22 54 29 E 1020,7 0,0
14.01.2018 22:00:00 10,6 5,6 39 21 52 28 E 1020,5 -
14.01.2018 21:00:00 10,0 6,0 39 21 57 31 E 1020,0 0,0
14.01.2018 20:00:00 9,8 5,8 42 23 55 30 E 1019,5 0,0
14.01.2018 19:00:00 9,7 6,2 42 23 55 30 E 1019,1 -
14.01.2018 18:00:00 9,4 6,7 42 23 55 30 E 1018,6 0,0
14.01.2018 17:00:00 9,2 6,6 37 20 55 30 E 1018,3 0,0
14.01.2018 16:00:00 10,2 6,7 35 19 54 29 E 1018,1 -
14.01.2018 15:00:00 10,1 6,1 37 20 57 31 E 1017,8 0,0
14.01.2018 14:00:00 10,4 6,5 37 20 57 31 E 1017,7 0,0
14.01.2018 13:00:00 11,3 6,6 35 19 54 29 E 1017,8 -
14.01.2018 12:00:00 11,0 6,9 34 18 52 28 E 1018,5 0,0
14.01.2018 11:00:00 11,3 6,8 35 19 55 30 E 1018,3 0,0
14.01.2018 10:00:00 10,7 6,1 22 12 50 27 E 1017,9 -
14.01.2018 09:00:00 10,8 5,7 31 17 50 27 E 1017,8 0,0
14.01.2018 08:00:00 10,5 5,7 31 17 44 24 E 1017,7 0,0
14.01.2018 07:00:00 10,0 5,4 24 13 42 23 E 1017,4 -
14.01.2018 06:00:00 9,8 5,0 21 11 35 19 E 1017,5 0,0
14.01.2018 05:00:00 9,7 6,6 21 11 31 17 ENE 1018,0 0,0
14.01.2018 04:00:00 9,6 5,9 22 12 39 21 ENE 1018,2 -
14.01.2018 03:00:00 9,4 6,3 16 9 26 14 ENE 1018,7 0,0
14.01.2018 02:00:00 9,2 5,7 13 7 22 12 ENE 1019,0 0,0
14.01.2018 01:00:00 8,9 5,5 15 8 21 11 E 1019,5 -
14.01.2018 00:00:00 9,0 4,8 9 5 16 9 E 1020,1 0,0

tt = Température de l'air
td = dewpoint
ff = Vitesse du vent
fx = gusts
dd = Direction du vent
ppp = reduced air pressure
rr = Quantités de précipitations

stations d'obs. à proximité